sensor_id;sensor_type;location;lat;lon;timestamp;temperature;humidity
7004;DHT22;3542;48.812;9.146;2022-07-22T00:02:12;18.00;99.90
7004;DHT22;3542;48.812;9.146;2022-07-22T00:04:38;18.00;99.90
7004;DHT22;3542;48.812;9.146;2022-07-22T00:07:04;18.00;99.90
7004;DHT22;3542;48.812;9.146;2022-07-22T00:09:29;18.00;99.90
7004;DHT22;3542;48.812;9.146;2022-07-22T00:11:55;18.00;99.90
7004;DHT22;3542;48.812;9.146;2022-07-22T00:14:21;17.90;99.90
7004;DHT22;3542;48.812;9.146;2022-07-22T00:16:46;17.90;99.90
7004;DHT22;3542;48.812;9.146;2022-07-22T00:19:12;17.90;99.90
7004;DHT22;3542;48.812;9.146;2022-07-22T00:21:38;17.90;99.90
7004;DHT22;3542;48.812;9.146;2022-07-22T00:24:04;17.90;99.90
7004;DHT22;3542;48.812;9.146;2022-07-22T00:26:30;17.90;99.90
7004;DHT22;3542;48.812;9.146;2022-07-22T00:28:55;17.80;99.90
7004;DHT22;3542;48.812;9.146;2022-07-22T00:31:21;17.80;99.90
7004;DHT22;3542;48.812;9.146;2022-07-22T00:33:46;17.70;99.90
7004;DHT22;3542;48.812;9.146;2022-07-22T00:36:12;17.80;99.90
7004;DHT22;3542;48.812;9.146;2022-07-22T00:38:38;17.70;99.90
7004;DHT22;3542;48.812;9.146;2022-07-22T00:41:04;17.70;99.90
7004;DHT22;3542;48.812;9.146;2022-07-22T00:43:55;17.70;99.90
7004;DHT22;3542;48.812;9.146;2022-07-22T00:46:23;17.70;99.90
7004;DHT22;3542;48.812;9.146;2022-07-22T00:48:48;17.70;99.90
7004;DHT22;3542;48.812;9.146;2022-07-22T00:51:14;17.70;99.90
7004;DHT22;3542;48.812;9.146;2022-07-22T00:53:41;17.60;99.90
7004;DHT22;3542;48.812;9.146;2022-07-22T00:56:06;17.60;99.90
7004;DHT22;3542;48.812;9.146;2022-07-22T00:58:32;17.60;99.90
7004;DHT22;3542;48.812;9.146;2022-07-22T02:31:32;16.90;99.90
7004;DHT22;3542;48.812;9.146;2022-07-22T02:33:58;16.90;99.90
7004;DHT22;3542;48.812;9.146;2022-07-22T02:36:23;16.90;99.90
7004;DHT22;3542;48.812;9.146;2022-07-22T02:38:49;16.90;99.90
7004;DHT22;3542;48.812;9.146;2022-07-22T02:41:14;16.90;99.90
7004;DHT22;3542;48.812;9.146;2022-07-22T02:43:40;16.90;99.90
7004;DHT22;3542;48.812;9.146;2022-07-22T02:46:05;16.90;99.90
7004;DHT22;3542;48.812;9.146;2022-07-22T02:48:31;16.90;99.90
7004;DHT22;3542;48.812;9.146;2022-07-22T02:50:57;16.80;99.90
7004;DHT22;3542;48.812;9.146;2022-07-22T02:53:22;16.80;99.90
7004;DHT22;3542;48.812;9.146;2022-07-22T02:55:48;16.80;99.90
7004;DHT22;3542;48.812;9.146;2022-07-22T02:58:13;16.80;99.90
7004;DHT22;3542;48.812;9.146;2022-07-22T03:00:39;16.80;99.90
7004;DHT22;3542;48.812;9.146;2022-07-22T03:03:05;16.70;99.90
7004;DHT22;3542;48.812;9.146;2022-07-22T03:05:30;16.70;99.90
7004;DHT22;3542;48.812;9.146;2022-07-22T03:07:56;16.70;99.90
7004;DHT22;3542;48.812;9.146;2022-07-22T03:10:21;16.70;99.90
7004;DHT22;3542;48.812;9.146;2022-07-22T03:12:47;16.70;99.90
7004;DHT22;3542;48.812;9.146;2022-07-22T03:15:13;16.70;99.90
7004;DHT22;3542;48.812;9.146;2022-07-22T03:17:38;16.70;99.90
7004;DHT22;3542;48.812;9.146;2022-07-22T03:20:08;16.70;99.90
7004;DHT22;3542;48.812;9.146;2022-07-22T03:22:34;16.60;99.90
7004;DHT22;3542;48.812;9.146;2022-07-22T03:25:00;16.60;99.90
7004;DHT22;3542;48.812;9.146;2022-07-22T03:27:26;16.60;99.90
7004;DHT22;3542;48.812;9.146;2022-07-22T03:29:52;16.70;99.90
7004;DHT22;3542;48.812;9.146;2022-07-22T03:32:17;16.70;99.90
7004;DHT22;3542;48.812;9.146;2022-07-22T03:34:44;16.70;99.90
7004;DHT22;3542;48.812;9.146;2022-07-22T03:37:09;16.70;99.90
7004;DHT22;3542;48.812;9.146;2022-07-22T03:39:35;16.70;99.90
7004;DHT22;3542;48.812;9.146;2022-07-22T03:42:00;16.70;99.90
7004;DHT22;3542;48.812;9.146;2022-07-22T03:44:26;16.60;99.90
7004;DHT22;3542;48.812;9.146;2022-07-22T03:46:52;16.60;99.90
7004;DHT22;3542;48.812;9.146;2022-07-22T03:49:17;16.60;99.90
7004;DHT22;3542;48.812;9.146;2022-07-22T03:51:43;16.60;99.90
7004;DHT22;3542;48.812;9.146;2022-07-22T03:54:08;16.60;99.90
7004;DHT22;3542;48.812;9.146;2022-07-22T03:56:34;16.60;99.90
7004;DHT22;3542;48.812;9.146;2022-07-22T03:58:59;16.60;99.90
7004;DHT22;3542;48.812;9.146;2022-07-22T04:01:25;16.60;99.90
7004;DHT22;3542;48.812;9.146;2022-07-22T04:03:50;16.60;99.90
7004;DHT22;3542;48.812;9.146;2022-07-22T04:06:17;16.60;99.90
7004;DHT22;3542;48.812;9.146;2022-07-22T04:08:42;16.60;99.90
7004;DHT22;3542;48.812;9.146;2022-07-22T04:11:08;16.70;99.90
7004;DHT22;3542;48.812;9.146;2022-07-22T04:13:33;16.80;99.90
7004;DHT22;3542;48.812;9.146;2022-07-22T04:15:59;16.80;99.90
7004;DHT22;3542;48.812;9.146;2022-07-22T04:18:24;16.90;99.90
7004;DHT22;3542;48.812;9.146;2022-07-22T04:20:50;16.90;99.90
7004;DHT22;3542;48.812;9.146;2022-07-22T04:23:16;16.90;99.90
7004;DHT22;3542;48.812;9.146;2022-07-22T04:25:41;16.90;99.90
7004;DHT22;3542;48.812;9.146;2022-07-22T04:28:07;16.90;99.90
7004;DHT22;3542;48.812;9.146;2022-07-22T04:30:33;16.90;99.90
7004;DHT22;3542;48.812;9.146;2022-07-22T04:32:58;16.90;99.90
7004;DHT22;3542;48.812;9.146;2022-07-22T04:35:24;17.00;99.90
7004;DHT22;3542;48.812;9.146;2022-07-22T04:37:50;17.10;99.90
7004;DHT22;3542;48.812;9.146;2022-07-22T04:40:15;17.10;99.90
7004;DHT22;3542;48.812;9.146;2022-07-22T04:42:41;17.20;99.90
7004;DHT22;3542;48.812;9.146;2022-07-22T04:45:06;17.30;99.90
7004;DHT22;3542;48.812;9.146;2022-07-22T04:47:32;17.30;99.90
7004;DHT22;3542;48.812;9.146;2022-07-22T04:49:58;17.40;99.90
7004;DHT22;3542;48.812;9.146;2022-07-22T04:52:23;17.40;99.90
7004;DHT22;3542;48.812;9.146;2022-07-22T04:54:49;17.50;99.90
7004;DHT22;3542;48.812;9.146;2022-07-22T04:57:14;17.50;99.90
7004;DHT22;3542;48.812;9.146;2022-07-22T04:59:40;17.60;99.90
7004;DHT22;3542;48.812;9.146;2022-07-22T05:02:05;17.70;99.90
7004;DHT22;3542;48.812;9.146;2022-07-22T05:04:31;17.80;99.90
7004;DHT22;3542;48.812;9.146;2022-07-22T05:06:57;17.80;99.90
7004;DHT22;3542;48.812;9.146;2022-07-22T05:09:22;17.90;99.90
7004;DHT22;3542;48.812;9.146;2022-07-22T05:11:48;18.00;99.90
7004;DHT22;3542;48.812;9.146;2022-07-22T05:14:13;18.10;99.90
7004;DHT22;3542;48.812;9.146;2022-07-22T05:16:39;18.20;99.90
7004;DHT22;3542;48.812;9.146;2022-07-22T05:19:05;18.50;99.90
7004;DHT22;3542;48.812;9.146;2022-07-22T05:21:31;19.00;99.90
7004;DHT22;3542;48.812;9.146;2022-07-22T05:23:56;19.50;99.90
7004;DHT22;3542;48.812;9.146;2022-07-22T05:26:22;20.00;99.90
7004;DHT22;3542;48.812;9.146;2022-07-22T05:28:48;20.60;99.90
7004;DHT22;3542;48.812;9.146;2022-07-22T05:31:13;21.10;99.90
7004;DHT22;3542;48.812;9.146;2022-07-22T05:33:39;21.50;99.90
7004;DHT22;3542;48.812;9.146;2022-07-22T05:36:05;21.70;99.90
7004;DHT22;3542;48.812;9.146;2022-07-22T05:38:34;22.10;99.90
7004;DHT22;3542;48.812;9.146;2022-07-22T05:40:59;22.40;99.90
7004;DHT22;3542;48.812;9.146;2022-07-22T05:43:24;22.70;99.90
7004;DHT22;3542;48.812;9.146;2022-07-22T05:45:50;22.90;99.90
7004;DHT22;3542;48.812;9.146;2022-07-22T05:48:15;23.10;99.90
7004;DHT22;3542;48.812;9.146;2022-07-22T05:50:41;23.30;99.90
7004;DHT22;3542;48.812;9.146;2022-07-22T05:53:07;23.50;99.90
7004;DHT22;3542;48.812;9.146;2022-07-22T05:55:32;23.70;99.90
7004;DHT22;3542;48.812;9.146;2022-07-22T05:57:57;23.60;99.90
7004;DHT22;3542;48.812;9.146;2022-07-22T06:00:23;23.60;99.90
7004;DHT22;3542;48.812;9.146;2022-07-22T06:02:49;23.90;99.90
7004;DHT22;3542;48.812;9.146;2022-07-22T06:05:14;24.20;99.90
7004;DHT22;3542;48.812;9.146;2022-07-22T06:07:40;24.30;99.90
7004;DHT22;3542;48.812;9.146;2022-07-22T06:10:05;24.60;99.90
7004;DHT22;3542;48.812;9.146;2022-07-22T06:12:31;24.90;99.90
7004;DHT22;3542;48.812;9.146;2022-07-22T06:14:56;25.10;99.90
7004;DHT22;3542;48.812;9.146;2022-07-22T06:17:22;25.10;99.90
7004;DHT22;3542;48.812;9.146;2022-07-22T06:19:48;25.10;99.90
7004;DHT22;3542;48.812;9.146;2022-07-22T06:22:13;25.40;99.90
7004;DHT22;3542;48.812;9.146;2022-07-22T06:24:39;25.50;99.90
7004;DHT22;3542;48.812;9.146;2022-07-22T06:27:04;25.60;99.90
7004;DHT22;3542;48.812;9.146;2022-07-22T06:29:30;25.60;99.90
7004;DHT22;3542;48.812;9.146;2022-07-22T06:31:55;25.70;99.90
7004;DHT22;3542;48.812;9.146;2022-07-22T06:34:21;25.90;99.90
7004;DHT22;3542;48.812;9.146;2022-07-22T06:36:46;26.10;99.90
7004;DHT22;3542;48.812;9.146;2022-07-22T06:39:12;26.20;99.90
7004;DHT22;3542;48.812;9.146;2022-07-22T06:41:37;26.20;99.90
7004;DHT22;3542;48.812;9.146;2022-07-22T06:44:03;26.30;99.90
7004;DHT22;3542;48.812;9.146;2022-07-22T06:46:28;26.20;99.90
7004;DHT22;3542;48.812;9.146;2022-07-22T06:48:54;26.20;99.90
7004;DHT22;3542;48.812;9.146;2022-07-22T06:51:19;26.20;99.90
7004;DHT22;3542;48.812;9.146;2022-07-22T06:53:45;26.20;99.90
7004;DHT22;3542;48.812;9.146;2022-07-22T06:56:10;26.30;99.90
7004;DHT22;3542;48.812;9.146;2022-07-22T06:58:36;26.50;99.90
7004;DHT22;3542;48.812;9.146;2022-07-22T07:01:02;26.80;99.90
7004;DHT22;3542;48.812;9.146;2022-07-22T07:03:27;26.90;99.90
7004;DHT22;3542;48.812;9.146;2022-07-22T07:05:53;27.20;99.90
7004;DHT22;3542;48.812;9.146;2022-07-22T07:08:18;27.20;99.90
7004;DHT22;3542;48.812;9.146;2022-07-22T07:10:44;27.10;99.90
7004;DHT22;3542;48.812;9.146;2022-07-22T07:13:09;27.10;99.90
7004;DHT22;3542;48.812;9.146;2022-07-22T07:15:35;27.20;99.90
7004;DHT22;3542;48.812;9.146;2022-07-22T07:18:01;27.00;99.90
7004;DHT22;3542;48.812;9.146;2022-07-22T07:20:27;27.00;99.90
7004;DHT22;3542;48.812;9.146;2022-07-22T07:22:53;27.20;99.90
7004;DHT22;3542;48.812;9.146;2022-07-22T07:25:19;27.40;99.90
7004;DHT22;3542;48.812;9.146;2022-07-22T07:27:44;27.70;99.90
7004;DHT22;3542;48.812;9.146;2022-07-22T07:30:10;27.90;99.90
7004;DHT22;3542;48.812;9.146;2022-07-22T07:32:37;27.90;99.90
7004;DHT22;3542;48.812;9.146;2022-07-22T07:35:03;27.90;99.90
7004;DHT22;3542;48.812;9.146;2022-07-22T07:37:29;28.20;99.90
7004;DHT22;3542;48.812;9.146;2022-07-22T07:39:54;28.50;99.90
7004;DHT22;3542;48.812;9.146;2022-07-22T07:42:20;28.60;99.90
7004;DHT22;3542;48.812;9.146;2022-07-22T07:44:45;28.60;99.90
7004;DHT22;3542;48.812;9.146;2022-07-22T07:47:11;28.30;99.90
7004;DHT22;3542;48.812;9.146;2022-07-22T07:49:38;28.20;99.90
7004;DHT22;3542;48.812;9.146;2022-07-22T07:52:04;28.30;99.90
7004;DHT22;3542;48.812;9.146;2022-07-22T07:54:29;28.70;99.90
7004;DHT22;3542;48.812;9.146;2022-07-22T07:56:55;28.90;99.90
7004;DHT22;3542;48.812;9.146;2022-07-22T07:59:20;28.90;99.90
7004;DHT22;3542;48.812;9.146;2022-07-22T08:01:46;29.10;99.90
7004;DHT22;3542;48.812;9.146;2022-07-22T08:04:11;28.90;99.90
7004;DHT22;3542;48.812;9.146;2022-07-22T08:06:37;29.10;99.90
7004;DHT22;3542;48.812;9.146;2022-07-22T08:09:03;29.00;99.90
7004;DHT22;3542;48.812;9.146;2022-07-22T08:11:29;28.90;99.90
7004;DHT22;3542;48.812;9.146;2022-07-22T08:13:54;28.90;99.90
7004;DHT22;3542;48.812;9.146;2022-07-22T08:16:20;29.10;99.90
7004;DHT22;3542;48.812;9.146;2022-07-22T08:18:45;29.40;99.90
7004;DHT22;3542;48.812;9.146;2022-07-22T08:21:11;29.50;99.90
7004;DHT22;3542;48.812;9.146;2022-07-22T08:23:36;29.90;99.90
7004;DHT22;3542;48.812;9.146;2022-07-22T08:26:02;29.90;99.90
7004;DHT22;3542;48.812;9.146;2022-07-22T08:28:28;29.80;99.90
7004;DHT22;3542;48.812;9.146;2022-07-22T08:30:53;29.70;99.90
7004;DHT22;3542;48.812;9.146;2022-07-22T08:33:19;30.10;99.90
7004;DHT22;3542;48.812;9.146;2022-07-22T08:35:45;30.50;99.90
7004;DHT22;3542;48.812;9.146;2022-07-22T08:38:10;30.90;99.90
7004;DHT22;3542;48.812;9.146;2022-07-22T08:40:36;31.00;99.90
7004;DHT22;3542;48.812;9.146;2022-07-22T08:43:03;30.70;99.90
7004;DHT22;3542;48.812;9.146;2022-07-22T08:45:30;30.70;99.90
7004;DHT22;3542;48.812;9.146;2022-07-22T08:47:56;30.80;99.90
7004;DHT22;3542;48.812;9.146;2022-07-22T08:50:21;30.90;99.90
7004;DHT22;3542;48.812;9.146;2022-07-22T08:52:47;30.70;99.90
7004;DHT22;3542;48.812;9.146;2022-07-22T08:55:13;30.50;99.90
7004;DHT22;3542;48.812;9.146;2022-07-22T08:57:45;31.00;99.90
7004;DHT22;3542;48.812;9.146;2022-07-22T09:00:14;31.40;99.90
7004;DHT22;3542;48.812;9.146;2022-07-22T09:02:42;32.00;99.90
7004;DHT22;3542;48.812;9.146;2022-07-22T09:05:10;32.30;99.90
7004;DHT22;3542;48.812;9.146;2022-07-22T09:07:39;32.40;99.90
7004;DHT22;3542;48.812;9.146;2022-07-22T09:10:07;32.50;99.90
7004;DHT22;3542;48.812;9.146;2022-07-22T09:12:33;32.50;99.90
7004;DHT22;3542;48.812;9.146;2022-07-22T09:15:00;32.60;99.90
7004;DHT22;3542;48.812;9.146;2022-07-22T09:17:31;33.10;99.90
7004;DHT22;3542;48.812;9.146;2022-07-22T09:20:00;33.50;99.90
7004;DHT22;3542;48.812;9.146;2022-07-22T09:22:43;33.90;99.90
7004;DHT22;3542;48.812;9.146;2022-07-22T09:25:29;34.20;99.90
7004;DHT22;3542;48.812;9.146;2022-07-22T09:30:53;33.80;99.90
7004;DHT22;3542;48.812;9.146;2022-07-22T09:33:19;33.90;99.90
7004;DHT22;3542;48.812;9.146;2022-07-22T09:35:46;34.10;99.90
7004;DHT22;3542;48.812;9.146;2022-07-22T09:38:14;34.10;99.90
7004;DHT22;3542;48.812;9.146;2022-07-22T09:40:49;34.40;99.90
7004;DHT22;3542;48.812;9.146;2022-07-22T09:43:16;34.50;99.90
7004;DHT22;3542;48.812;9.146;2022-07-22T09:48:17;34.90;99.90
7004;DHT22;3542;48.812;9.146;2022-07-22T09:50:44;34.80;99.90
7004;DHT22;3542;48.812;9.146;2022-07-22T09:53:09;34.90;99.90
7004;DHT22;3542;48.812;9.146;2022-07-22T09:55:38;35.40;99.90
7004;DHT22;3542;48.812;9.146;2022-07-22T09:58:04;35.80;99.90
7004;DHT22;3542;48.812;9.146;2022-07-22T10:00:30;36.00;99.90
7004;DHT22;3542;48.812;9.146;2022-07-22T10:03:01;36.10;99.90
7004;DHT22;3542;48.812;9.146;2022-07-22T10:05:29;35.90;99.90
7004;DHT22;3542;48.812;9.146;2022-07-22T10:07:56;35.60;99.90
7004;DHT22;3542;48.812;9.146;2022-07-22T10:10:26;35.50;99.90
7004;DHT22;3542;48.812;9.146;2022-07-22T10:12:55;35.80;99.60
7004;DHT22;3542;48.812;9.146;2022-07-22T10:15:22;36.10;99.40
7004;DHT22;3542;48.812;9.146;2022-07-22T10:17:51;36.40;99.90
7004;DHT22;3542;48.812;9.146;2022-07-22T10:20:18;36.30;97.60
7004;DHT22;3542;48.812;9.146;2022-07-22T10:22:50;35.80;98.00
7004;DHT22;3542;48.812;9.146;2022-07-22T10:25:17;36.00;99.60
7004;DHT22;3542;48.812;9.146;2022-07-22T10:28:02;36.30;98.60
7004;DHT22;3542;48.812;9.146;2022-07-22T10:30:35;36.30;98.70
7004;DHT22;3542;48.812;9.146;2022-07-22T10:33:10;36.10;98.30
7004;DHT22;3542;48.812;9.146;2022-07-22T10:36:00;36.50;98.40
7004;DHT22;3542;48.812;9.146;2022-07-22T10:38:26;36.60;97.30
7004;DHT22;3542;48.812;9.146;2022-07-22T10:40:59;36.40;97.70
7004;DHT22;3542;48.812;9.146;2022-07-22T10:43:27;36.50;96.20
7004;DHT22;3542;48.812;9.146;2022-07-22T10:45:58;36.50;97.50
7004;DHT22;3542;48.812;9.146;2022-07-22T10:48:44;36.00;96.40
7004;DHT22;3542;48.812;9.146;2022-07-22T10:51:15;36.10;97.00
7004;DHT22;3542;48.812;9.146;2022-07-22T10:54:01;35.70;96.10
7004;DHT22;3542;48.812;9.146;2022-07-22T10:56:32;35.80;96.70
7004;DHT22;3542;48.812;9.146;2022-07-22T10:59:13;35.40;96.50
7004;DHT22;3542;48.812;9.146;2022-07-22T11:01:42;34.50;96.80
7004;DHT22;3542;48.812;9.146;2022-07-22T11:04:18;34.50;97.90
7004;DHT22;3542;48.812;9.146;2022-07-22T11:06:48;34.50;97.70
7004;DHT22;3542;48.812;9.146;2022-07-22T11:09:15;34.60;97.10
7004;DHT22;3542;48.812;9.146;2022-07-22T11:11:44;34.60;98.00
7004;DHT22;3542;48.812;9.146;2022-07-22T11:14:19;34.90;98.60
7004;DHT22;3542;48.812;9.146;2022-07-22T11:16:47;34.90;98.40
7004;DHT22;3542;48.812;9.146;2022-07-22T11:19:13;34.90;98.20
7004;DHT22;3542;48.812;9.146;2022-07-22T11:21:39;35.00;99.00
7004;DHT22;3542;48.812;9.146;2022-07-22T11:24:07;34.70;96.50
7004;DHT22;3542;48.812;9.146;2022-07-22T11:26:53;34.30;98.00
7004;DHT22;3542;48.812;9.146;2022-07-22T11:29:31;34.00;97.00
7004;DHT22;3542;48.812;9.146;2022-07-22T11:32:00;33.70;97.50
7004;DHT22;3542;48.812;9.146;2022-07-22T11:34:26;33.20;99.20
7004;DHT22;3542;48.812;9.146;2022-07-22T11:36:53;33.10;98.10
7004;DHT22;3542;48.812;9.146;2022-07-22T11:39:25;32.60;97.60
7004;DHT22;3542;48.812;9.146;2022-07-22T11:41:52;32.30;98.80
7004;DHT22;3542;48.812;9.146;2022-07-22T11:44:27;32.90;99.90
7004;DHT22;3542;48.812;9.146;2022-07-22T11:46:52;33.30;98.70
7004;DHT22;3542;48.812;9.146;2022-07-22T11:49:20;33.70;98.20
7004;DHT22;3542;48.812;9.146;2022-07-22T11:51:47;33.80;98.50
7004;DHT22;3542;48.812;9.146;2022-07-22T11:54:13;33.90;98.40
7004;DHT22;3542;48.812;9.146;2022-07-22T11:56:39;33.90;96.30
7004;DHT22;3542;48.812;9.146;2022-07-22T11:59:06;33.70;96.10
7004;DHT22;3542;48.812;9.146;2022-07-22T12:01:36;33.20;97.70
7004;DHT22;3542;48.812;9.146;2022-07-22T12:04:07;33.00;97.60
7004;DHT22;3542;48.812;9.146;2022-07-22T12:06:34;32.80;97.80
7004;DHT22;3542;48.812;9.146;2022-07-22T12:09:09;32.80;97.70
7004;DHT22;3542;48.812;9.146;2022-07-22T12:11:37;32.70;98.50
7004;DHT22;3542;48.812;9.146;2022-07-22T12:14:13;32.80;98.10
7004;DHT22;3542;48.812;9.146;2022-07-22T12:16:39;33.00;99.30
7004;DHT22;3542;48.812;9.146;2022-07-22T12:19:13;32.90;98.40
7004;DHT22;3542;48.812;9.146;2022-07-22T12:22:04;32.50;98.20
7004;DHT22;3542;48.812;9.146;2022-07-22T12:24:38;32.60;99.60
7004;DHT22;3542;48.812;9.146;2022-07-22T12:27:09;32.80;98.80
7004;DHT22;3542;48.812;9.146;2022-07-22T12:32:03;32.60;99.10
7004;DHT22;3542;48.812;9.146;2022-07-22T12:37:18;32.90;98.70
7004;DHT22;3542;48.812;9.146;2022-07-22T12:39:56;32.90;98.10
7004;DHT22;3542;48.812;9.146;2022-07-22T12:42:24;32.90;97.40
7004;DHT22;3542;48.812;9.146;2022-07-22T12:45:06;32.50;98.10
7004;DHT22;3542;48.812;9.146;2022-07-22T12:52:52;32.30;98.30
7004;DHT22;3542;48.812;9.146;2022-07-22T12:55:18;32.20;97.10
7004;DHT22;3542;48.812;9.146;2022-07-22T12:57:44;32.20;97.60
7004;DHT22;3542;48.812;9.146;2022-07-22T13:00:10;32.10;98.10
7004;DHT22;3542;48.812;9.146;2022-07-22T13:02:36;32.20;98.00
7004;DHT22;3542;48.812;9.146;2022-07-22T13:05:02;32.40;98.00
7004;DHT22;3542;48.812;9.146;2022-07-22T13:07:28;32.50;97.10
7004;DHT22;3542;48.812;9.146;2022-07-22T13:09:53;32.60;98.20
7004;DHT22;3542;48.812;9.146;2022-07-22T13:12:19;32.60;95.90
7004;DHT22;3542;48.812;9.146;2022-07-22T13:14:44;32.50;95.00
7004;DHT22;3542;48.812;9.146;2022-07-22T13:17:10;32.30;96.90
7004;DHT22;3542;48.812;9.146;2022-07-22T13:19:37;32.00;97.40
7004;DHT22;3542;48.812;9.146;2022-07-22T13:22:03;31.90;97.90
7004;DHT22;3542;48.812;9.146;2022-07-22T13:24:28;31.90;97.60
7004;DHT22;3542;48.812;9.146;2022-07-22T13:26:54;32.00;97.80
7004;DHT22;3542;48.812;9.146;2022-07-22T13:29:19;32.10;97.10
7004;DHT22;3542;48.812;9.146;2022-07-22T13:31:45;31.90;96.90
7004;DHT22;3542;48.812;9.146;2022-07-22T13:34:11;31.90;96.70
7004;DHT22;3542;48.812;9.146;2022-07-22T13:36:37;31.90;97.00
7004;DHT22;3542;48.812;9.146;2022-07-22T13:39:02;32.00;96.90
7004;DHT22;3542;48.812;9.146;2022-07-22T13:41:30;32.00;97.80
7004;DHT22;3542;48.812;9.146;2022-07-22T13:43:55;32.10;97.00
7004;DHT22;3542;48.812;9.146;2022-07-22T13:46:21;32.10;97.30
7004;DHT22;3542;48.812;9.146;2022-07-22T13:48:46;32.00;96.90
7004;DHT22;3542;48.812;9.146;2022-07-22T13:51:12;32.00;97.60
7004;DHT22;3542;48.812;9.146;2022-07-22T13:53:39;32.00;97.20
7004;DHT22;3542;48.812;9.146;2022-07-22T13:56:08;32.00;98.20
7004;DHT22;3542;48.812;9.146;2022-07-22T13:58:34;32.10;97.20
7004;DHT22;3542;48.812;9.146;2022-07-22T14:01:00;32.10;96.50
7004;DHT22;3542;48.812;9.146;2022-07-22T14:03:26;31.90;95.60
7004;DHT22;3542;48.812;9.146;2022-07-22T14:05:51;31.70;95.30
7004;DHT22;3542;48.812;9.146;2022-07-22T14:08:17;31.60;95.80
7004;DHT22;3542;48.812;9.146;2022-07-22T14:10:43;31.60;95.50
7004;DHT22;3542;48.812;9.146;2022-07-22T14:13:08;31.70;95.50
7004;DHT22;3542;48.812;9.146;2022-07-22T14:15:34;31.60;94.80
7004;DHT22;3542;48.812;9.146;2022-07-22T14:18:00;31.60;95.30
7004;DHT22;3542;48.812;9.146;2022-07-22T14:20:25;31.60;95.70
7004;DHT22;3542;48.812;9.146;2022-07-22T14:22:51;31.70;95.20
7004;DHT22;3542;48.812;9.146;2022-07-22T14:25:17;31.70;94.80
7004;DHT22;3542;48.812;9.146;2022-07-22T14:27:43;31.70;95.20
7004;DHT22;3542;48.812;9.146;2022-07-22T14:30:09;31.70;96.00
7004;DHT22;3542;48.812;9.146;2022-07-22T14:32:35;31.70;95.30
7004;DHT22;3542;48.812;9.146;2022-07-22T14:35:01;31.60;94.90
7004;DHT22;3542;48.812;9.146;2022-07-22T14:37:27;31.50;94.70
7004;DHT22;3542;48.812;9.146;2022-07-22T14:39:53;31.50;95.30
7004;DHT22;3542;48.812;9.146;2022-07-22T14:42:18;31.50;94.90
7004;DHT22;3542;48.812;9.146;2022-07-22T14:44:44;31.50;95.10
7004;DHT22;3542;48.812;9.146;2022-07-22T14:47:09;31.50;96.10
7004;DHT22;3542;48.812;9.146;2022-07-22T14:49:35;31.60;96.50
7004;DHT22;3542;48.812;9.146;2022-07-22T14:52:00;31.60;95.30
7004;DHT22;3542;48.812;9.146;2022-07-22T14:54:26;31.60;94.50
7004;DHT22;3542;48.812;9.146;2022-07-22T14:56:51;31.60;94.50
7004;DHT22;3542;48.812;9.146;2022-07-22T14:59:17;31.50;93.90
7004;DHT22;3542;48.812;9.146;2022-07-22T15:01:42;31.50;94.10
7004;DHT22;3542;48.812;9.146;2022-07-22T15:04:08;31.50;94.00
7004;DHT22;3542;48.812;9.146;2022-07-22T15:06:33;31.50;93.20
7004;DHT22;3542;48.812;9.146;2022-07-22T15:08:59;31.50;93.00
7004;DHT22;3542;48.812;9.146;2022-07-22T15:11:24;31.40;93.50
7004;DHT22;3542;48.812;9.146;2022-07-22T15:13:50;31.40;93.70
7004;DHT22;3542;48.812;9.146;2022-07-22T15:16:15;31.40;94.20
7004;DHT22;3542;48.812;9.146;2022-07-22T15:18:41;31.40;94.00
7004;DHT22;3542;48.812;9.146;2022-07-22T15:21:07;31.40;94.80
7004;DHT22;3542;48.812;9.146;2022-07-22T15:23:32;31.50;95.60
7004;DHT22;3542;48.812;9.146;2022-07-22T15:25:59;31.60;95.10
7004;DHT22;3542;48.812;9.146;2022-07-22T15:28:25;31.40;94.60
7004;DHT22;3542;48.812;9.146;2022-07-22T15:30:51;31.40;95.20
7004;DHT22;3542;48.812;9.146;2022-07-22T15:33:17;31.30;95.00
7004;DHT22;3542;48.812;9.146;2022-07-22T15:35:42;31.40;95.10
7004;DHT22;3542;48.812;9.146;2022-07-22T15:38:08;31.30;96.00
7004;DHT22;3542;48.812;9.146;2022-07-22T15:40:34;31.30;95.00
7004;DHT22;3542;48.812;9.146;2022-07-22T15:43:00;31.20;95.70
7004;DHT22;3542;48.812;9.146;2022-07-22T15:45:25;31.20;95.70
7004;DHT22;3542;48.812;9.146;2022-07-22T15:47:51;31.20;96.00
7004;DHT22;3542;48.812;9.146;2022-07-22T15:50:17;31.20;97.00
7004;DHT22;3542;48.812;9.146;2022-07-22T15:52:47;31.20;96.90
7004;DHT22;3542;48.812;9.146;2022-07-22T15:55:13;31.10;95.80
7004;DHT22;3542;48.812;9.146;2022-07-22T15:57:40;31.10;96.10
7004;DHT22;3542;48.812;9.146;2022-07-22T16:00:24;31.10;96.20
7004;DHT22;3542;48.812;9.146;2022-07-22T16:02:49;31.10;96.30
7004;DHT22;3542;48.812;9.146;2022-07-22T16:05:15;31.10;95.70
7004;DHT22;3542;48.812;9.146;2022-07-22T16:07:41;31.10;95.80
7004;DHT22;3542;48.812;9.146;2022-07-22T16:10:07;31.10;95.70
7004;DHT22;3542;48.812;9.146;2022-07-22T16:12:32;31.10;96.20
7004;DHT22;3542;48.812;9.146;2022-07-22T16:14:58;31.10;96.60
7004;DHT22;3542;48.812;9.146;2022-07-22T16:17:24;31.10;96.20
7004;DHT22;3542;48.812;9.146;2022-07-22T16:19:49;31.00;96.40
7004;DHT22;3542;48.812;9.146;2022-07-22T16:22:15;31.00;96.30
7004;DHT22;3542;48.812;9.146;2022-07-22T16:24:40;31.00;96.70
7004;DHT22;3542;48.812;9.146;2022-07-22T16:27:06;30.90;96.90
7004;DHT22;3542;48.812;9.146;2022-07-22T16:29:31;30.90;96.50
7004;DHT22;3542;48.812;9.146;2022-07-22T16:31:57;30.90;97.10
7004;DHT22;3542;48.812;9.146;2022-07-22T16:34:22;31.00;97.60
7004;DHT22;3542;48.812;9.146;2022-07-22T16:36:48;31.10;96.90
7004;DHT22;3542;48.812;9.146;2022-07-22T16:39:13;31.10;96.00
7004;DHT22;3542;48.812;9.146;2022-07-22T16:41:39;31.20;96.40
7004;DHT22;3542;48.812;9.146;2022-07-22T16:44:05;31.20;96.10
7004;DHT22;3542;48.812;9.146;2022-07-22T16:46:31;31.30;96.40
7004;DHT22;3542;48.812;9.146;2022-07-22T16:48:56;31.30;96.00
7004;DHT22;3542;48.812;9.146;2022-07-22T16:51:22;31.20;96.20
7004;DHT22;3542;48.812;9.146;2022-07-22T16:53:48;31.10;96.20
7004;DHT22;3542;48.812;9.146;2022-07-22T16:56:14;31.00;95.70
7004;DHT22;3542;48.812;9.146;2022-07-22T16:58:39;31.00;96.00
7004;DHT22;3542;48.812;9.146;2022-07-22T17:01:05;31.00;96.30
7004;DHT22;3542;48.812;9.146;2022-07-22T17:03:30;30.90;96.20
7004;DHT22;3542;48.812;9.146;2022-07-22T17:05:56;30.90;97.00
7004;DHT22;3542;48.812;9.146;2022-07-22T17:08:25;30.80;96.20
7004;DHT22;3542;48.812;9.146;2022-07-22T17:10:51;30.80;96.30
7004;DHT22;3542;48.812;9.146;2022-07-22T17:13:17;30.70;96.30
7004;DHT22;3542;48.812;9.146;2022-07-22T17:15:42;30.70;97.30
7004;DHT22;3542;48.812;9.146;2022-07-22T17:18:08;30.50;97.00
7004;DHT22;3542;48.812;9.146;2022-07-22T17:20:33;30.50;96.70
7004;DHT22;3542;48.812;9.146;2022-07-22T17:22:59;30.40;97.10
7004;DHT22;3542;48.812;9.146;2022-07-22T17:25:26;30.40;97.00
7004;DHT22;3542;48.812;9.146;2022-07-22T17:27:52;30.40;97.00
7004;DHT22;3542;48.812;9.146;2022-07-22T17:30:21;30.20;97.40
7004;DHT22;3542;48.812;9.146;2022-07-22T17:32:48;30.20;97.80
7004;DHT22;3542;48.812;9.146;2022-07-22T17:35:15;30.10;98.20
7004;DHT22;3542;48.812;9.146;2022-07-22T17:37:42;30.10;98.90
7004;DHT22;3542;48.812;9.146;2022-07-22T17:40:08;30.00;99.30
7004;DHT22;3542;48.812;9.146;2022-07-22T17:42:35;30.00;99.90
7004;DHT22;3542;48.812;9.146;2022-07-22T17:45:01;29.90;99.90
7004;DHT22;3542;48.812;9.146;2022-07-22T17:47:27;29.90;99.90